sensor_id;sensor_type;location;lat;lon;timestamp;pressure;altitude;pressure_sealevel;temperature;humidity
81865;BME280;71313;43.514;1.500;2024-01-30T00:02:16;101301.09;;;13.24;71.08
81865;BME280;71313;43.514;1.500;2024-01-30T00:04:42;101305.53;;;13.25;70.37
81865;BME280;71313;43.514;1.500;2024-01-30T00:07:07;101301.59;;;13.15;71.14
81865;BME280;71313;43.514;1.500;2024-01-30T00:09:32;101290.38;;;13.07;71.27
81865;BME280;71313;43.514;1.500;2024-01-30T00:11:58;101297.69;;;13.05;71.05
81865;BME280;71313;43.514;1.500;2024-01-30T00:14:23;101298.47;;;13.07;71.73
81865;BME280;71313;43.514;1.500;2024-01-30T00:16:49;101296.53;;;13.09;71.55
81865;BME280;71313;43.514;1.500;2024-01-30T00:19:15;101295.41;;;13.13;70.83
81865;BME280;71313;43.514;1.500;2024-01-30T00:21:41;101298.63;;;13.04;72.24
81865;BME280;71313;43.514;1.500;2024-01-30T00:24:06;101290.84;;;12.99;71.66
81865;BME280;71313;43.514;1.500;2024-01-30T00:26:32;101285.53;;;12.98;72.48
81865;BME280;71313;43.514;1.500;2024-01-30T00:28:57;101292.94;;;12.94;71.67
81865;BME280;71313;43.514;1.500;2024-01-30T00:31:23;101280.31;;;12.95;72.62
81865;BME280;71313;43.514;1.500;2024-01-30T00:33:48;101271.38;;;12.94;72.47
81865;BME280;71313;43.514;1.500;2024-01-30T00:36:13;101270.03;;;13.01;72.12
81865;BME280;71313;43.514;1.500;2024-01-30T00:38:39;101283.41;;;13.03;72.00
81865;BME280;71313;43.514;1.500;2024-01-30T00:41:07;101280.59;;;12.90;71.96
81865;BME280;71313;43.514;1.500;2024-01-30T00:43:32;101277.63;;;12.95;71.46
81865;BME280;71313;43.514;1.500;2024-01-30T00:45:58;101280.25;;;12.96;72.33
81865;BME280;71313;43.514;1.500;2024-01-30T00:48:24;101284.75;;;12.96;71.70
81865;BME280;71313;43.514;1.500;2024-01-30T00:50:49;101277.97;;;12.89;72.21
81865;BME280;71313;43.514;1.500;2024-01-30T00:53:14;101287.00;;;12.88;71.78
81865;BME280;71313;43.514;1.500;2024-01-30T00:55:40;101276.22;;;12.88;72.33
81865;BME280;71313;43.514;1.500;2024-01-30T00:58:05;101270.69;;;12.91;72.03
81865;BME280;71313;43.514;1.500;2024-01-30T01:00:32;101283.44;;;12.87;72.49
81865;BME280;71313;43.514;1.500;2024-01-30T01:03:00;101281.44;;;12.91;72.10
81865;BME280;71313;43.514;1.500;2024-01-30T01:05:26;101277.97;;;12.89;72.36
81865;BME280;71313;43.514;1.500;2024-01-30T01:07:52;101279.72;;;12.90;72.04
81865;BME280;71313;43.514;1.500;2024-01-30T01:10:17;101280.41;;;12.93;72.21
81865;BME280;71313;43.514;1.500;2024-01-30T01:12:43;101273.97;;;12.96;71.36
81865;BME280;71313;43.514;1.500;2024-01-30T01:15:09;101279.38;;;12.96;71.25
81865;BME280;71313;43.514;1.500;2024-01-30T01:17:38;101284.94;;;12.93;71.91
81865;BME280;71313;43.514;1.500;2024-01-30T01:20:05;101280.59;;;12.90;71.89
81865;BME280;71313;43.514;1.500;2024-01-30T01:22:31;101287.63;;;12.93;72.22
81865;BME280;71313;43.514;1.500;2024-01-30T01:24:57;101279.44;;;12.94;72.51
81865;BME280;71313;43.514;1.500;2024-01-30T01:27:23;101287.00;;;12.88;71.72
81865;BME280;71313;43.514;1.500;2024-01-30T01:29:48;101293.97;;;12.92;72.21
81865;BME280;71313;43.514;1.500;2024-01-30T01:32:13;101295.69;;;12.93;72.36
81865;BME280;71313;43.514;1.500;2024-01-30T01:34:39;101289.34;;;12.94;71.85
81865;BME280;71313;43.514;1.500;2024-01-30T01:37:04;101293.97;;;12.92;72.50
81865;BME280;71313;43.514;1.500;2024-01-30T01:39:30;101291.09;;;12.95;72.06
81865;BME280;71313;43.514;1.500;2024-01-30T01:41:55;101285.28;;;12.87;72.24
81865;BME280;71313;43.514;1.500;2024-01-30T01:44:21;101293.25;;;12.88;72.98
81865;BME280;71313;43.514;1.500;2024-01-30T01:46:47;101295.69;;;12.93;72.36
81865;BME280;71313;43.514;1.500;2024-01-30T01:49:13;101309.97;;;12.95;72.20
81865;BME280;71313;43.514;1.500;2024-01-30T01:51:41;101308.91;;;12.97;72.63
81865;BME280;71313;43.514;1.500;2024-01-30T01:54:07;101313.44;;;12.97;72.28
81865;BME280;71313;43.514;1.500;2024-01-30T01:56:33;101301.78;;;12.96;72.38
81865;BME280;71313;43.514;1.500;2024-01-30T01:59:04;101304.56;;;12.95;72.73
81865;BME280;71313;43.514;1.500;2024-01-30T02:01:31;101307.44;;;12.92;72.83
81865;BME280;71313;43.514;1.500;2024-01-30T02:03:58;101297.09;;;13.00;72.54
81865;BME280;71313;43.514;1.500;2024-01-30T02:06:24;101301.63;;;12.99;73.16
81865;BME280;71313;43.514;1.500;2024-01-30T02:08:49;101305.28;;;12.98;73.42
81865;BME280;71313;43.514;1.500;2024-01-30T02:11:15;101298.91;;;12.99;73.47
81865;BME280;71313;43.514;1.500;2024-01-30T02:13:41;101288.03;;;13.01;73.42
81865;BME280;71313;43.514;1.500;2024-01-30T02:16:07;101293.41;;;13.01;73.25
81865;BME280;71313;43.514;1.500;2024-01-30T02:18:32;101299.88;;;12.98;73.73
81865;BME280;71313;43.514;1.500;2024-01-30T02:20:59;101295.34;;;12.99;73.46
81865;BME280;71313;43.514;1.500;2024-01-30T02:23:30;101291.50;;;13.03;73.61
81865;BME280;71313;43.514;1.500;2024-01-30T02:25:55;101290.56;;;13.04;73.40
81865;BME280;71313;43.514;1.500;2024-01-30T02:28:21;101296.88;;;13.03;72.74
81865;BME280;71313;43.514;1.500;2024-01-30T02:30:46;101303.06;;;13.05;73.55
81865;BME280;71313;43.514;1.500;2024-01-30T02:33:12;101296.22;;;12.99;72.80
81865;BME280;71313;43.514;1.500;2024-01-30T02:35:38;101294.56;;;12.97;73.51
81865;BME280;71313;43.514;1.500;2024-01-30T02:38:03;101301.88;;;12.95;73.47
81865;BME280;71313;43.514;1.500;2024-01-30T02:40:29;101296.88;;;13.03;73.08
81865;BME280;71313;43.514;1.500;2024-01-30T02:42:56;101302.09;;;13.06;73.25
81865;BME280;71313;43.514;1.500;2024-01-30T02:45:21;101302.97;;;13.07;72.70
81865;BME280;71313;43.514;1.500;2024-01-30T02:47:47;101296.88;;;13.03;72.92
81865;BME280;71313;43.514;1.500;2024-01-30T02:50:12;101304.88;;;13.05;73.29
81865;BME280;71313;43.514;1.500;2024-01-30T02:52:38;101306.03;;;13.00;73.36
81865;BME280;71313;43.514;1.500;2024-01-30T02:55:04;101303.25;;;13.02;73.63
81865;BME280;71313;43.514;1.500;2024-01-30T02:57:29;101302.28;;;13.03;73.72
81865;BME280;71313;43.514;1.500;2024-01-30T02:59:55;101302.28;;;13.03;73.96
81865;BME280;71313;43.514;1.500;2024-01-30T03:02:20;101297.75;;;13.04;73.83
81865;BME280;71313;43.514;1.500;2024-01-30T03:04:46;101302.09;;;13.06;73.67
81865;BME280;71313;43.514;1.500;2024-01-30T03:07:12;101299.41;;;13.06;73.50
81865;BME280;71313;43.514;1.500;2024-01-30T03:09:37;101296.53;;;13.09;73.14
81865;BME280;71313;43.514;1.500;2024-01-30T03:12:03;101289.59;;;13.05;73.72
81865;BME280;71313;43.514;1.500;2024-01-30T03:14:32;101293.06;;;13.07;73.22
81865;BME280;71313;43.514;1.500;2024-01-30T03:16:58;101297.50;;;13.08;73.46
81865;BME280;71313;43.514;1.500;2024-01-30T03:19:23;101291.16;;;13.09;72.98
81865;BME280;71313;43.514;1.500;2024-01-30T03:21:49;101290.81;;;13.15;72.77
81865;BME280;71313;43.514;1.500;2024-01-30T03:24:14;101299.53;;;13.20;73.49
81865;BME280;71313;43.514;1.500;2024-01-30T03:26:39;101290.97;;;13.12;74.01
81865;BME280;71313;43.514;1.500;2024-01-30T03:29:05;101293.84;;;13.09;73.37
81865;BME280;71313;43.514;1.500;2024-01-30T03:31:30;101302.63;;;13.13;73.12
81865;BME280;71313;43.514;1.500;2024-01-30T03:33:56;101305.09;;;13.17;73.26
81865;BME280;71313;43.514;1.500;2024-01-30T03:36:21;101290.91;;;13.14;72.79
81865;BME280;71313;43.514;1.500;2024-01-30T03:38:46;101301.84;;;13.11;73.50
81865;BME280;71313;43.514;1.500;2024-01-30T03:41:12;101305.50;;;13.10;73.42
81865;BME280;71313;43.514;1.500;2024-01-30T03:43:37;101315.00;;;13.17;73.64
81865;BME280;71313;43.514;1.500;2024-01-30T03:46:03;101312.53;;;13.12;72.87
81865;BME280;71313;43.514;1.500;2024-01-30T03:48:29;101314.53;;;13.09;73.27
81865;BME280;71313;43.514;1.500;2024-01-30T03:50:54;101316.72;;;13.02;73.75
81865;BME280;71313;43.514;1.500;2024-01-30T03:53:20;101318.28;;;13.06;73.15
81865;BME280;71313;43.514;1.500;2024-01-30T03:55:45;101318.09;;;13.09;73.60
81865;BME280;71313;43.514;1.500;2024-01-30T03:58:10;101318.28;;;13.06;73.87
81865;BME280;71313;43.514;1.500;2024-01-30T04:00:36;101327.16;;;13.08;73.22
81865;BME280;71313;43.514;1.500;2024-01-30T04:03:01;101325.94;;;12.98;73.63
81865;BME280;71313;43.514;1.500;2024-01-30T04:05:27;101325.56;;;13.04;73.41
81865;BME280;71313;43.514;1.500;2024-01-30T04:07:52;101325.56;;;13.04;73.58
81865;BME280;71313;43.514;1.500;2024-01-30T04:10:17;101325.94;;;12.98;73.87
81865;BME280;71313;43.514;1.500;2024-01-30T04:12:43;101327.84;;;12.96;73.37
81865;BME280;71313;43.514;1.500;2024-01-30T04:15:08;101321.69;;;12.94;73.77
81865;BME280;71313;43.514;1.500;2024-01-30T04:17:34;101332.22;;;12.98;72.77
81865;BME280;71313;43.514;1.500;2024-01-30T04:19:59;101329.31;;;13.01;72.99
81865;BME280;71313;43.514;1.500;2024-01-30T04:22:25;101327.69;;;12.99;72.95
81865;BME280;71313;43.514;1.500;2024-01-30T04:24:51;101328.72;;;12.96;73.05
81865;BME280;71313;43.514;1.500;2024-01-30T04:27:16;101331.50;;;12.95;73.06
81865;BME280;71313;43.514;1.500;2024-01-30T04:29:42;101316.63;;;12.88;73.00
81865;BME280;71313;43.514;1.500;2024-01-30T04:32:07;101330.09;;;12.88;73.37
81865;BME280;71313;43.514;1.500;2024-01-30T04:34:33;101327.59;;;12.85;73.68
81865;BME280;71313;43.514;1.500;2024-01-30T04:36:58;101332.84;;;12.71;73.55
81865;BME280;71313;43.514;1.500;2024-01-30T04:39:24;101338.69;;;12.79;73.34
81865;BME280;71313;43.514;1.500;2024-01-30T04:41:49;101337.75;;;12.80;72.87
81865;BME280;71313;43.514;1.500;2024-01-30T04:44:14;101343.13;;;12.80;72.86
81865;BME280;71313;43.514;1.500;2024-01-30T04:46:40;101343.13;;;12.80;72.65
81865;BME280;71313;43.514;1.500;2024-01-30T04:49:05;101340.94;;;12.71;73.69
81865;BME280;71313;43.514;1.500;2024-01-30T04:51:33;101340.22;;;12.67;73.70
81865;BME280;71313;43.514;1.500;2024-01-30T04:53:58;101345.19;;;12.75;73.21
81865;BME280;71313;43.514;1.500;2024-01-30T04:56:24;101342.06;;;12.66;74.20
81865;BME280;71313;43.514;1.500;2024-01-30T04:58:49;101354.84;;;12.79;73.17
81865;BME280;71313;43.514;1.500;2024-01-30T05:01:18;101359.63;;;12.74;73.53
81865;BME280;71313;43.514;1.500;2024-01-30T05:03:43;101359.88;;;12.69;73.88
81865;BME280;71313;43.514;1.500;2024-01-30T05:06:09;101361.97;;;12.80;73.86
81865;BME280;71313;43.514;1.500;2024-01-30T05:08:34;101364.50;;;12.83;73.44
81865;BME280;71313;43.514;1.500;2024-01-30T05:11:04;101362.59;;;12.85;73.37
81865;BME280;71313;43.514;1.500;2024-01-30T05:13:31;101364.50;;;12.83;73.74
81865;BME280;71313;43.514;1.500;2024-01-30T05:15:56;101363.63;;;12.82;74.55
81865;BME280;71313;43.514;1.500;2024-01-30T05:18:21;101373.38;;;12.85;74.10
81865;BME280;71313;43.514;1.500;2024-01-30T05:20:47;101374.78;;;12.92;74.45
81865;BME280;71313;43.514;1.500;2024-01-30T05:23:12;101376.34;;;12.96;74.11
81865;BME280;71313;43.514;1.500;2024-01-30T05:25:37;101386.97;;;12.99;74.09
81865;BME280;71313;43.514;1.500;2024-01-30T05:28:03;101387.13;;;12.96;73.95
81865;BME280;71313;43.514;1.500;2024-01-30T05:30:28;101404.50;;;13.06;73.88
81865;BME280;71313;43.514;1.500;2024-01-30T05:32:54;101402.44;;;13.11;73.90
81865;BME280;71313;43.514;1.500;2024-01-30T05:35:19;101399.66;;;13.13;73.15
81865;BME280;71313;43.514;1.500;2024-01-30T05:37:48;101409.72;;;13.09;72.90
81865;BME280;71313;43.514;1.500;2024-01-30T05:40:13;101411.06;;;13.18;74.04
81865;BME280;71313;43.514;1.500;2024-01-30T05:42:39;101408.69;;;13.12;74.19
81865;BME280;71313;43.514;1.500;2024-01-30T05:45:05;101408.59;;;13.13;73.31
81865;BME280;71313;43.514;1.500;2024-01-30T05:47:30;101402.44;;;13.11;73.34
81865;BME280;71313;43.514;1.500;2024-01-30T05:49:56;101404.16;;;13.12;73.27
81865;BME280;71313;43.514;1.500;2024-01-30T05:52:21;101406.63;;;13.17;73.68
81865;BME280;71313;43.514;1.500;2024-01-30T05:54:46;101407.50;;;13.17;72.96
81865;BME280;71313;43.514;1.500;2024-01-30T05:57:12;101398.94;;;13.09;73.64
81865;BME280;71313;43.514;1.500;2024-01-30T05:59:37;101391.97;;;13.05;74.06
81865;BME280;71313;43.514;1.500;2024-01-30T06:02:03;101411.47;;;13.10;73.25
81865;BME280;71313;43.514;1.500;2024-01-30T06:04:28;101405.19;;;13.10;72.84
81865;BME280;71313;43.514;1.500;2024-01-30T06:06:54;101403.38;;;13.10;74.09
81865;BME280;71313;43.514;1.500;2024-01-30T06:09:19;101404.34;;;13.09;73.48
81865;BME280;71313;43.514;1.500;2024-01-30T06:11:45;101406.25;;;13.07;74.25
81865;BME280;71313;43.514;1.500;2024-01-30T06:14:10;101396.59;;;13.03;73.19
81865;BME280;71313;43.514;1.500;2024-01-30T06:16:36;101403.13;;;12.99;73.40
81865;BME280;71313;43.514;1.500;2024-01-30T06:19:01;101404.88;;;13.00;72.91
81865;BME280;71313;43.514;1.500;2024-01-30T06:21:26;101396.16;;;12.95;72.81
81865;BME280;71313;43.514;1.500;2024-01-30T06:23:52;101404.34;;;12.93;73.68
81865;BME280;71313;43.514;1.500;2024-01-30T06:26:17;101403.47;;;12.93;73.37
81865;BME280;71313;43.514;1.500;2024-01-30T06:28:42;101412.81;;;12.86;74.17
81865;BME280;71313;43.514;1.500;2024-01-30T06:31:09;101415.22;;;12.75;74.25
81865;BME280;71313;43.514;1.500;2024-01-30T06:33:34;101416.19;;;12.74;73.98
81865;BME280;71313;43.514;1.500;2024-01-30T06:36:00;101413.31;;;12.77;74.00
81865;BME280;71313;43.514;1.500;2024-01-30T06:38:25;101421.63;;;12.72;74.96
81865;BME280;71313;43.514;1.500;2024-01-30T06:40:50;101433.59;;;12.66;75.24
81865;BME280;71313;43.514;1.500;2024-01-30T06:43:16;101438.66;;;12.73;75.32
81865;BME280;71313;43.514;1.500;2024-01-30T06:45:41;101435.03;;;12.74;74.81
81865;BME280;71313;43.514;1.500;2024-01-30T06:48:08;101437.31;;;12.81;75.18
81865;BME280;71313;43.514;1.500;2024-01-30T06:50:33;101442.63;;;12.83;74.83
81865;BME280;71313;43.514;1.500;2024-01-30T06:52:59;101430.91;;;12.84;74.29
81865;BME280;71313;43.514;1.500;2024-01-30T06:55:24;101440.72;;;12.85;74.27
81865;BME280;71313;43.514;1.500;2024-01-30T06:57:50;101448.47;;;12.91;74.63
81865;BME280;71313;43.514;1.500;2024-01-30T07:00:16;101437.69;;;12.91;73.99
81865;BME280;71313;43.514;1.500;2024-01-30T07:02:41;101439.75;;;12.86;74.88
81865;BME280;71313;43.514;1.500;2024-01-30T07:05:07;101440.47;;;12.89;74.12
81865;BME280;71313;43.514;1.500;2024-01-30T07:07:32;101430.56;;;12.90;74.36
81865;BME280;71313;43.514;1.500;2024-01-30T07:09:58;101445.69;;;12.92;74.31
81865;BME280;71313;43.514;1.500;2024-01-30T07:12:23;101449.59;;;12.87;74.57
81865;BME280;71313;43.514;1.500;2024-01-30T07:14:50;101445.06;;;12.87;74.85
81865;BME280;71313;43.514;1.500;2024-01-30T07:17:16;101454.72;;;12.91;74.34
81865;BME280;71313;43.514;1.500;2024-01-30T07:19:42;101458.84;;;12.98;74.54
81865;BME280;71313;43.514;1.500;2024-01-30T07:22:08;101458.56;;;13.03;74.28
81865;BME280;71313;43.514;1.500;2024-01-30T07:24:33;101457.00;;;12.99;74.99
81865;BME280;71313;43.514;1.500;2024-01-30T07:26:59;101463.78;;;13.06;74.25
81865;BME280;71313;43.514;1.500;2024-01-30T07:29:24;101470.75;;;13.10;74.02
81865;BME280;71313;43.514;1.500;2024-01-30T07:31:50;101473.19;;;13.15;74.04
81865;BME280;71313;43.514;1.500;2024-01-30T07:34:15;101479.25;;;13.20;73.71
81865;BME280;71313;43.514;1.500;2024-01-30T07:36:41;101468.38;;;13.21;73.62
81865;BME280;71313;43.514;1.500;2024-01-30T07:39:06;101474.81;;;13.19;74.11
81865;BME280;71313;43.514;1.500;2024-01-30T07:41:32;101475.84;;;13.16;74.30
81865;BME280;71313;43.514;1.500;2024-01-30T07:43:58;101472.81;;;13.22;74.66
81865;BME280;71313;43.514;1.500;2024-01-30T07:46:23;101464.03;;;13.19;73.77
81865;BME280;71313;43.514;1.500;2024-01-30T07:48:48;101470.28;;;13.19;74.52
81865;BME280;71313;43.514;1.500;2024-01-30T07:51:14;101464.31;;;13.13;74.41
81865;BME280;71313;43.514;1.500;2024-01-30T07:53:42;101473.19;;;13.15;75.05
81865;BME280;71313;43.514;1.500;2024-01-30T07:56:07;101473.94;;;13.18;74.68
81865;BME280;71313;43.514;1.500;2024-01-30T07:58:33;101485.50;;;13.20;75.04
81865;BME280;71313;43.514;1.500;2024-01-30T08:00:58;101486.28;;;13.22;73.91
81865;BME280;71313;43.514;1.500;2024-01-30T08:03:25;101499.75;;;13.22;74.76
81865;BME280;71313;43.514;1.500;2024-01-30T08:05:51;101492.91;;;13.32;74.52
81865;BME280;71313;43.514;1.500;2024-01-30T08:08:16;101496.75;;;13.28;74.32
81865;BME280;71313;43.514;1.500;2024-01-30T08:10:41;101503.38;;;13.39;73.94
81865;BME280;71313;43.514;1.500;2024-01-30T08:13:07;101505.09;;;13.40;74.17
81865;BME280;71313;43.514;1.500;2024-01-30T08:15:34;101512.06;;;13.44;74.19
81865;BME280;71313;43.514;1.500;2024-01-30T08:17:59;101512.78;;;13.47;73.74
81865;BME280;71313;43.514;1.500;2024-01-30T08:20:25;101515.22;;;13.52;73.81
81865;BME280;71313;43.514;1.500;2024-01-30T08:22:51;101520.28;;;13.58;74.34
81865;BME280;71313;43.514;1.500;2024-01-30T08:25:16;101516.63;;;13.59;74.05
81865;BME280;71313;43.514;1.500;2024-01-30T08:27:41;101506.72;;;13.59;74.13
81865;BME280;71313;43.514;1.500;2024-01-30T08:30:07;101507.41;;;13.63;73.84
81865;BME280;71313;43.514;1.500;2024-01-30T08:32:33;101504.88;;;13.60;73.90
81865;BME280;71313;43.514;1.500;2024-01-30T08:34:59;101501.50;;;13.72;73.45
81865;BME280;71313;43.514;1.500;2024-01-30T08:37:25;101515.00;;;13.72;73.33
81865;BME280;71313;43.514;1.500;2024-01-30T08:39:50;101505.16;;;13.71;73.39
81865;BME280;71313;43.514;1.500;2024-01-30T08:42:16;101498.97;;;13.69;73.67
81865;BME280;71313;43.514;1.500;2024-01-30T08:44:43;101498.28;;;13.81;73.29
81865;BME280;71313;43.514;1.500;2024-01-30T08:47:09;101509.50;;;13.74;73.14
81865;BME280;71313;43.514;1.500;2024-01-30T08:49:34;101508.13;;;13.82;73.77
81865;BME280;71313;43.514;1.500;2024-01-30T08:52:00;101497.00;;;13.88;73.36
81865;BME280;71313;43.514;1.500;2024-01-30T08:54:25;101510.13;;;13.94;73.63
81865;BME280;71313;43.514;1.500;2024-01-30T08:56:51;101518.56;;;14.04;73.52
81865;BME280;71313;43.514;1.500;2024-01-30T08:59:18;101511.78;;;13.97;72.87
81865;BME280;71313;43.514;1.500;2024-01-30T09:01:44;101529.09;;;14.09;72.60
81865;BME280;71313;43.514;1.500;2024-01-30T09:04:09;101524.94;;;14.19;71.82
81865;BME280;71313;43.514;1.500;2024-01-30T09:06:34;101520.13;;;14.24;72.45
81865;BME280;71313;43.514;1.500;2024-01-30T09:09:00;101523.25;;;14.32;72.68
81865;BME280;71313;43.514;1.500;2024-01-30T09:11:26;101520.84;;;14.43;71.77
81865;BME280;71313;43.514;1.500;2024-01-30T09:13:51;101528.31;;;14.54;71.45
81865;BME280;71313;43.514;1.500;2024-01-30T09:16:17;101526.13;;;14.60;71.10
81865;BME280;71313;43.514;1.500;2024-01-30T09:18:42;101532.81;;;14.69;71.48
81865;BME280;71313;43.514;1.500;2024-01-30T09:21:08;101527.91;;;14.76;70.39
81865;BME280;71313;43.514;1.500;2024-01-30T09:23:33;101527.13;;;14.74;69.63
81865;BME280;71313;43.514;1.500;2024-01-30T09:25:59;101529.13;;;14.70;70.16
81865;BME280;71313;43.514;1.500;2024-01-30T09:28:25;101543.94;;;14.79;70.57
81865;BME280;71313;43.514;1.500;2024-01-30T09:30:50;101549.06;;;14.83;70.37
81865;BME280;71313;43.514;1.500;2024-01-30T09:33:15;101552.09;;;14.93;69.33
81865;BME280;71313;43.514;1.500;2024-01-30T09:35:41;101542.81;;;14.97;69.46
81865;BME280;71313;43.514;1.500;2024-01-30T09:38:06;101549.47;;;14.91;68.40
81865;BME280;71313;43.514;1.500;2024-01-30T09:40:32;101554.19;;;14.88;68.41
81865;BME280;71313;43.514;1.500;2024-01-30T09:42:58;101561.56;;;15.00;68.91
81865;BME280;71313;43.514;1.500;2024-01-30T09:45:25;101561.19;;;15.06;68.31
81865;BME280;71313;43.514;1.500;2024-01-30T09:47:51;101569.13;;;15.09;67.37
81865;BME280;71313;43.514;1.500;2024-01-30T09:50:18;101574.44;;;15.11;67.17
81865;BME280;71313;43.514;1.500;2024-01-30T09:52:44;101575.88;;;15.16;67.40
81865;BME280;71313;43.514;1.500;2024-01-30T09:55:10;101580.81;;;15.24;67.06
81865;BME280;71313;43.514;1.500;2024-01-30T09:57:36;101580.34;;;15.32;66.64
81865;BME280;71313;43.514;1.500;2024-01-30T10:00:05;101570.50;;;15.31;66.28
81865;BME280;71313;43.514;1.500;2024-01-30T10:02:37;101572.25;;;15.32;66.41
81865;BME280;71313;43.514;1.500;2024-01-30T10:05:02;101569.34;;;15.35;66.62
81865;BME280;71313;43.514;1.500;2024-01-30T10:07:28;101572.44;;;15.43;66.45
81865;BME280;71313;43.514;1.500;2024-01-30T10:09:53;101571.97;;;15.50;66.52
81865;BME280;71313;43.514;1.500;2024-01-30T10:12:21;101575.00;;;15.60;66.18
81865;BME280;71313;43.514;1.500;2024-01-30T10:14:47;101567.06;;;15.71;65.19
81865;BME280;71313;43.514;1.500;2024-01-30T10:17:12;101571.59;;;15.71;65.16
81865;BME280;71313;43.514;1.500;2024-01-30T10:19:39;101568.31;;;15.66;65.33
81865;BME280;71313;43.514;1.500;2024-01-30T10:22:05;101569.56;;;15.74;64.75
81865;BME280;71313;43.514;1.500;2024-01-30T10:24:32;101571.59;;;15.71;64.44
81865;BME280;71313;43.514;1.500;2024-01-30T10:26:58;101561.44;;;15.74;65.66
81865;BME280;71313;43.514;1.500;2024-01-30T10:29:24;101564.53;;;15.82;64.48
81865;BME280;71313;43.514;1.500;2024-01-30T10:32:00;101562.22;;;15.90;64.10
81865;BME280;71313;43.514;1.500;2024-01-30T10:34:26;101555.03;;;16.04;65.01
81865;BME280;71313;43.514;1.500;2024-01-30T10:37:16;101554.81;;;16.21;64.65
81865;BME280;71313;43.514;1.500;2024-01-30T10:39:43;101549.91;;;16.40;64.26
81865;BME280;71313;43.514;1.500;2024-01-30T10:42:18;101559.81;;;16.54;63.51
81865;BME280;71313;43.514;1.500;2024-01-30T10:47:29;101544.03;;;16.61;63.41
81865;BME280;71313;43.514;1.500;2024-01-30T10:49:56;101545.59;;;16.65;63.00
81865;BME280;71313;43.514;1.500;2024-01-30T10:52:23;101536.50;;;16.66;62.74
81865;BME280;71313;43.514;1.500;2024-01-30T10:54:54;101542.38;;;16.72;63.17
81865;BME280;71313;43.514;1.500;2024-01-30T10:57:24;101538.69;;;16.73;61.37
81865;BME280;71313;43.514;1.500;2024-01-30T10:59:51;101533.38;;;16.72;60.80
81865;BME280;71313;43.514;1.500;2024-01-30T11:02:18;101521.00;;;16.68;61.09
81865;BME280;71313;43.514;1.500;2024-01-30T11:04:45;101522.09;;;16.78;61.83
81865;BME280;71313;43.514;1.500;2024-01-30T11:07:17;101521.47;;;16.87;60.31
81865;BME280;71313;43.514;1.500;2024-01-30T11:10:12;101514.66;;;16.94;59.94
81865;BME280;71313;43.514;1.500;2024-01-30T11:12:40;101513.69;;;17.20;60.53
81865;BME280;71313;43.514;1.500;2024-01-30T11:15:15;101511.50;;;17.51;60.35
81865;BME280;71313;43.514;1.500;2024-01-30T11:20:19;101519.72;;;18.00;56.71
81865;BME280;71313;43.514;1.500;2024-01-30T11:22:46;101513.78;;;18.19;57.30
81865;BME280;71313;43.514;1.500;2024-01-30T11:25:15;101508.38;;;18.54;57.32
81865;BME280;71313;43.514;1.500;2024-01-30T11:27:42;101510.09;;;18.79;56.16
81865;BME280;71313;43.514;1.500;2024-01-30T11:30:08;101514.16;;;19.08;56.52
81865;BME280;71313;43.514;1.500;2024-01-30T11:32:33;101508.78;;;19.53;55.27
81865;BME280;71313;43.514;1.500;2024-01-30T11:34:59;101495.91;;;19.77;54.53
81865;BME280;71313;43.514;1.500;2024-01-30T11:37:28;101505.19;;;19.97;53.43
81865;BME280;71313;43.514;1.500;2024-01-30T11:39:54;101501.44;;;20.09;53.08
81865;BME280;71313;43.514;1.500;2024-01-30T11:42:22;101484.94;;;20.22;52.92
81865;BME280;71313;43.514;1.500;2024-01-30T11:44:50;101494.75;;;20.57;53.08
81865;BME280;71313;43.514;1.500;2024-01-30T11:47:16;101484.56;;;21.00;52.00
81865;BME280;71313;43.514;1.500;2024-01-30T11:49:43;101483.19;;;21.27;50.76
81865;BME280;71313;43.514;1.500;2024-01-30T11:52:09;101481.63;;;21.64;49.65
81865;BME280;71313;43.514;1.500;2024-01-30T11:54:34;101484.97;;;21.68;47.25
81865;BME280;71313;43.514;1.500;2024-01-30T11:57:00;101491.47;;;21.77;48.70
81865;BME280;71313;43.514;1.500;2024-01-30T11:59:25;101475.91;;;21.67;47.00
81865;BME280;71313;43.514;1.500;2024-01-30T12:01:57;101470.78;;;21.84;47.61
81865;BME280;71313;43.514;1.500;2024-01-30T12:04:22;101475.75;;;22.09;47.82
81865;BME280;71313;43.514;1.500;2024-01-30T12:06:51;101471.78;;;22.32;46.35
81865;BME280;71313;43.514;1.500;2024-01-30T12:09:17;101466.44;;;22.50;46.95
81865;BME280;71313;43.514;1.500;2024-01-30T12:11:49;101470.31;;;22.28;46.20
81865;BME280;71313;43.514;1.500;2024-01-30T12:14:17;101474.66;;;22.89;46.11
81865;BME280;71313;43.514;1.500;2024-01-30T12:16:48;101462.66;;;23.56;45.18
81865;BME280;71313;43.514;1.500;2024-01-30T12:19:24;101450.00;;;24.00;44.50
81865;BME280;71313;43.514;1.500;2024-01-30T12:21:59;101446.78;;;24.50;43.49
81865;BME280;71313;43.514;1.500;2024-01-30T12:24:28;101446.38;;;24.63;41.31
81865;BME280;71313;43.514;1.500;2024-01-30T12:26:59;101443.13;;;25.03;40.82
81865;BME280;71313;43.514;1.500;2024-01-30T12:29:24;101444.03;;;25.37;42.08
81865;BME280;71313;43.514;1.500;2024-01-30T12:31:53;101440.81;;;25.84;40.79
81865;BME280;71313;43.514;1.500;2024-01-30T12:34:18;101441.25;;;26.21;40.96
81865;BME280;71313;43.514;1.500;2024-01-30T12:36:47;101426.84;;;26.52;39.58
81865;BME280;71313;43.514;1.500;2024-01-30T12:39:14;101433.06;;;26.46;39.20
81865;BME280;71313;43.514;1.500;2024-01-30T12:41:40;101432.03;;;26.55;38.34
81865;BME280;71313;43.514;1.500;2024-01-30T12:44:05;101428.22;;;26.72;37.90
81865;BME280;71313;43.514;1.500;2024-01-30T12:46:31;101434.59;;;26.73;37.71
81865;BME280;71313;43.514;1.500;2024-01-30T12:48:56;101437.69;;;26.78;37.55
81865;BME280;71313;43.514;1.500;2024-01-30T12:51:22;101433.72;;;27.21;37.10